sensor_id;sensor_type;location;lat;lon;timestamp;pressure;altitude;pressure_sealevel;temperature;humidity
18850;BME280;4989;48.772;9.154;2023-01-27T00:04:36;98241.88;;;4.22;100.00
18850;BME280;4989;48.772;9.154;2023-01-27T00:09:38;98240.81;;;4.34;100.00
18850;BME280;4989;48.772;9.154;2023-01-27T00:14:43;98235.84;;;4.36;100.00
18850;BME280;4989;48.772;9.154;2023-01-27T00:19:45;98244.59;;;4.26;100.00
18850;BME280;4989;48.772;9.154;2023-01-27T00:24:47;98233.13;;;4.32;100.00
18850;BME280;4989;48.772;9.154;2023-01-27T00:29:50;98224.56;;;4.20;100.00
18850;BME280;4989;48.772;9.154;2023-01-27T00:34:54;98229.09;;;4.08;100.00
18850;BME280;4989;48.772;9.154;2023-01-27T00:39:58;98225.59;;;4.04;100.00
18850;BME280;4989;48.772;9.154;2023-01-27T00:45:00;98233.00;;;4.15;100.00
18850;BME280;4989;48.772;9.154;2023-01-27T00:50:21;98233.06;;;4.25;100.00
18850;BME280;4989;48.772;9.154;2023-01-27T00:55:24;98241.56;;;4.31;100.00
18850;BME280;4989;48.772;9.154;2023-01-27T01:00:27;98236.44;;;4.11;100.00
18850;BME280;4989;48.772;9.154;2023-01-27T01:05:29;98236.97;;;4.31;100.00
18850;BME280;4989;48.772;9.154;2023-01-27T01:10:32;98239.22;;;4.26;100.00
18850;BME280;4989;48.772;9.154;2023-01-27T01:15:35;98243.69;;;4.07;100.00
18850;BME280;4989;48.772;9.154;2023-01-27T01:20:44;98250.72;;;4.23;100.00
18850;BME280;4989;48.772;9.154;2023-01-27T01:25:54;98249.81;;;4.04;100.00
18850;BME280;4989;48.772;9.154;2023-01-27T01:31:04;98242.81;;;3.96;100.00
18850;BME280;4989;48.772;9.154;2023-01-27T01:36:09;98248.72;;;4.12;100.00
18850;BME280;4989;48.772;9.154;2023-01-27T01:41:17;98244.50;;;4.11;100.00
18850;BME280;4989;48.772;9.154;2023-01-27T01:46:21;98248.88;;;4.30;100.00
18850;BME280;4989;48.772;9.154;2023-01-27T01:51:39;98241.72;;;4.52;100.00
18850;BME280;4989;48.772;9.154;2023-01-27T01:57:02;98232.31;;;4.25;100.00
18850;BME280;4989;48.772;9.154;2023-01-27T02:02:09;98221.34;;;4.00;100.00
18850;BME280;4989;48.772;9.154;2023-01-27T02:07:23;98216.06;;;4.14;100.00
18850;BME280;4989;48.772;9.154;2023-01-27T02:12:29;98222.00;;;3.86;100.00
18850;BME280;4989;48.772;9.154;2023-01-27T02:17:31;98209.22;;;3.76;100.00
18850;BME280;4989;48.772;9.154;2023-01-27T02:28:08;98214.72;;;3.49;100.00
18850;BME280;4989;48.772;9.154;2023-01-27T02:33:14;98207.63;;;3.67;100.00
18850;BME280;4989;48.772;9.154;2023-01-27T02:38:18;98202.19;;;3.60;100.00
18850;BME280;4989;48.772;9.154;2023-01-27T02:43:21;98207.41;;;3.87;100.00
18850;BME280;4989;48.772;9.154;2023-01-27T02:48:23;98219.91;;;3.68;100.00
18850;BME280;4989;48.772;9.154;2023-01-27T02:53:26;98208.09;;;3.80;100.00
18850;BME280;4989;48.772;9.154;2023-01-27T02:58:29;98207.47;;;3.94;100.00
18850;BME280;4989;48.772;9.154;2023-01-27T03:03:40;98209.28;;;4.31;100.00
18850;BME280;4989;48.772;9.154;2023-01-27T03:08:52;98201.34;;;4.49;100.00
18850;BME280;4989;48.772;9.154;2023-01-27T03:13:55;98196.13;;;4.19;100.00
18850;BME280;4989;48.772;9.154;2023-01-27T03:18:58;98196.69;;;3.90;100.00
18850;BME280;4989;48.772;9.154;2023-01-27T03:24:01;98201.31;;;3.94;100.00
18850;BME280;4989;48.772;9.154;2023-01-27T03:29:04;98204.38;;;3.92;99.13
18850;BME280;4989;48.772;9.154;2023-01-27T03:34:25;98206.41;;;3.61;100.00
18850;BME280;4989;48.772;9.154;2023-01-27T03:39:32;98215.00;;;3.78;100.00
18850;BME280;4989;48.772;9.154;2023-01-27T03:44:53;98219.31;;;3.86;100.00
18850;BME280;4989;48.772;9.154;2023-01-27T03:50:15;98214.69;;;3.86;100.00
18850;BME280;4989;48.772;9.154;2023-01-27T03:55:20;98213.88;;;3.79;100.00
18850;BME280;4989;48.772;9.154;2023-01-27T04:00:24;98221.28;;;3.96;100.00
18850;BME280;4989;48.772;9.154;2023-01-27T04:05:27;98216.75;;;4.00;100.00
18850;BME280;4989;48.772;9.154;2023-01-27T04:10:49;98219.69;;;3.84;100.00
18850;BME280;4989;48.772;9.154;2023-01-27T04:16:12;98221.53;;;4.21;100.00
18850;BME280;4989;48.772;9.154;2023-01-27T04:21:14;98222.25;;;4.15;100.00
18850;BME280;4989;48.772;9.154;2023-01-27T04:26:17;98222.03;;;3.93;100.00
18850;BME280;4989;48.772;9.154;2023-01-27T04:31:20;98232.41;;;4.39;100.00
18850;BME280;4989;48.772;9.154;2023-01-27T04:36:22;98226.31;;;4.49;100.00
18850;BME280;4989;48.772;9.154;2023-01-27T04:41:25;98228.53;;;4.33;100.00
18850;BME280;4989;48.772;9.154;2023-01-27T04:46:27;98226.59;;;4.30;100.00
18850;BME280;4989;48.772;9.154;2023-01-27T04:51:31;98225.63;;;4.59;100.00
18850;BME280;4989;48.772;9.154;2023-01-27T04:56:41;98233.38;;;4.72;100.00
18850;BME280;4989;48.772;9.154;2023-01-27T05:01:45;98226.88;;;4.73;100.00
18850;BME280;4989;48.772;9.154;2023-01-27T05:06:48;98226.38;;;4.56;100.00
18850;BME280;4989;48.772;9.154;2023-01-27T05:11:50;98241.00;;;4.63;100.00
18850;BME280;4989;48.772;9.154;2023-01-27T05:16:53;98233.44;;;4.79;100.00
18850;BME280;4989;48.772;9.154;2023-01-27T05:21:56;98231.81;;;4.64;100.00
18850;BME280;4989;48.772;9.154;2023-01-27T05:26:58;98225.44;;;4.31;100.00
18850;BME280;4989;48.772;9.154;2023-01-27T05:32:01;98251.63;;;4.38;100.00
18850;BME280;4989;48.772;9.154;2023-01-27T05:37:04;98248.59;;;4.43;100.00
18850;BME280;4989;48.772;9.154;2023-01-27T05:42:06;98253.25;;;4.53;100.00
18850;BME280;4989;48.772;9.154;2023-01-27T05:47:08;98269.09;;;4.62;100.00
18850;BME280;4989;48.772;9.154;2023-01-27T05:52:11;98265.25;;;4.63;100.00
18850;BME280;4989;48.772;9.154;2023-01-27T05:57:13;98256.69;;;4.46;100.00
18850;BME280;4989;48.772;9.154;2023-01-27T06:02:16;98258.72;;;4.64;100.00
18850;BME280;4989;48.772;9.154;2023-01-27T06:07:18;98261.53;;;4.81;100.00
18850;BME280;4989;48.772;9.154;2023-01-27T06:12:21;98258.03;;;4.81;100.00
18850;BME280;4989;48.772;9.154;2023-01-27T06:17:24;98258.34;;;4.65;100.00
18850;BME280;4989;48.772;9.154;2023-01-27T06:22:26;98260.28;;;4.68;100.00
18850;BME280;4989;48.772;9.154;2023-01-27T06:27:29;98275.03;;;4.92;100.00
18850;BME280;4989;48.772;9.154;2023-01-27T06:32:31;98267.69;;;4.82;100.00
18850;BME280;4989;48.772;9.154;2023-01-27T06:37:36;98268.69;;;4.59;100.00
18850;BME280;4989;48.772;9.154;2023-01-27T06:42:41;98269.88;;;4.66;100.00
18850;BME280;4989;48.772;9.154;2023-01-27T06:47:44;98281.09;;;4.75;100.00
18850;BME280;4989;48.772;9.154;2023-01-27T06:52:47;98285.91;;;5.07;100.00
18850;BME280;4989;48.772;9.154;2023-01-27T06:57:49;98300.56;;;5.13;100.00
18850;BME280;4989;48.772;9.154;2023-01-27T07:02:55;98303.16;;;4.98;100.00
18850;BME280;4989;48.772;9.154;2023-01-27T07:07:58;98311.97;;;4.88;100.00
18850;BME280;4989;48.772;9.154;2023-01-27T07:13:08;98323.16;;;4.97;100.00
18850;BME280;4989;48.772;9.154;2023-01-27T07:18:11;98326.63;;;4.94;100.00
18850;BME280;4989;48.772;9.154;2023-01-27T07:23:15;98330.41;;;4.86;100.00
18850;BME280;4989;48.772;9.154;2023-01-27T07:28:18;98339.63;;;4.85;100.00
18850;BME280;4989;48.772;9.154;2023-01-27T07:33:20;98335.00;;;4.82;97.26
18850;BME280;4989;48.772;9.154;2023-01-27T07:38:23;98335.47;;;4.98;100.00
18850;BME280;4989;48.772;9.154;2023-01-27T07:43:25;98338.25;;;5.05;100.00
18850;BME280;4989;48.772;9.154;2023-01-27T07:48:28;98342.78;;;4.94;100.00
18850;BME280;4989;48.772;9.154;2023-01-27T07:53:30;98348.16;;;4.94;95.55
18850;BME280;4989;48.772;9.154;2023-01-27T07:58:33;98359.44;;;4.63;100.00
18850;BME280;4989;48.772;9.154;2023-01-27T08:03:36;98363.53;;;4.90;100.00
18850;BME280;4989;48.772;9.154;2023-01-27T08:08:39;98358.97;;;5.01;100.00
18850;BME280;4989;48.772;9.154;2023-01-27T08:13:42;98364.34;;;5.01;100.00
18850;BME280;4989;48.772;9.154;2023-01-27T08:18:44;98363.53;;;4.90;100.00
18850;BME280;4989;48.772;9.154;2023-01-27T08:23:47;98360.56;;;5.06;100.00
18850;BME280;4989;48.772;9.154;2023-01-27T08:28:50;98373.63;;;5.08;100.00
18850;BME280;4989;48.772;9.154;2023-01-27T08:33:53;98382.16;;;5.17;100.00
18850;BME280;4989;48.772;9.154;2023-01-27T08:38:56;98382.56;;;5.19;100.00
18850;BME280;4989;48.772;9.154;2023-01-27T08:43:58;98386.59;;;4.91;100.00
18850;BME280;4989;48.772;9.154;2023-01-27T08:49:01;98378.19;;;4.96;100.00
18850;BME280;4989;48.772;9.154;2023-01-27T08:54:05;98387.63;;;5.24;100.00
18850;BME280;4989;48.772;9.154;2023-01-27T08:59:07;98390.56;;;5.08;98.15
18850;BME280;4989;48.772;9.154;2023-01-27T09:04:10;98403.34;;;5.15;100.00
18850;BME280;4989;48.772;9.154;2023-01-27T09:09:13;98398.25;;;5.06;97.16
18850;BME280;4989;48.772;9.154;2023-01-27T09:14:15;98396.00;;;5.12;99.10
18850;BME280;4989;48.772;9.154;2023-01-27T09:19:18;98387.53;;;5.17;96.83
18850;BME280;4989;48.772;9.154;2023-01-27T09:24:21;98390.72;;;4.78;100.00
18850;BME280;4989;48.772;9.154;2023-01-27T09:29:23;98393.16;;;4.90;99.03
18850;BME280;4989;48.772;9.154;2023-01-27T09:34:26;98398.56;;;4.94;97.43
18850;BME280;4989;48.772;9.154;2023-01-27T09:39:30;98390.09;;;4.95;97.95
18850;BME280;4989;48.772;9.154;2023-01-27T09:44:58;98400.09;;;4.95;98.25
18850;BME280;4989;48.772;9.154;2023-01-27T09:55:57;98394.84;;;5.13;94.60
18850;BME280;4989;48.772;9.154;2023-01-27T10:01:15;98404.81;;;5.09;95.79
18850;BME280;4989;48.772;9.154;2023-01-27T10:27:29;98397.69;;;5.38;99.12
18850;BME280;4989;48.772;9.154;2023-01-27T10:32:50;98400.38;;;5.38;100.00
18850;BME280;4989;48.772;9.154;2023-01-27T10:43:32;98396.28;;;5.58;94.22
18850;BME280;4989;48.772;9.154;2023-01-27T10:48:50;98404.09;;;5.81;94.08
18850;BME280;4989;48.772;9.154;2023-01-27T10:54:09;98416.41;;;5.82;95.99
18850;BME280;4989;48.772;9.154;2023-01-27T10:59:19;98407.16;;;5.76;96.20
18850;BME280;4989;48.772;9.154;2023-01-27T11:10:04;98401.69;;;5.65;92.16
18850;BME280;4989;48.772;9.154;2023-01-27T11:15:19;98405.19;;;5.66;95.95
18850;BME280;4989;48.772;9.154;2023-01-27T11:25:43;98405.84;;;5.48;81.04
18850;BME280;4989;48.772;9.154;2023-01-27T11:36:07;98399.75;;;5.62;100.00
18850;BME280;4989;48.772;9.154;2023-01-27T11:41:10;98385.84;;;5.57;90.86
18850;BME280;4989;48.772;9.154;2023-01-27T11:46:18;98384.66;;;5.50;92.84
18850;BME280;4989;48.772;9.154;2023-01-27T11:51:25;98383.16;;;5.57;90.80
18850;BME280;4989;48.772;9.154;2023-01-27T11:56:29;98380.16;;;5.69;92.23
18850;BME280;4989;48.772;9.154;2023-01-27T12:01:58;98373.19;;;5.68;90.47
18850;BME280;4989;48.772;9.154;2023-01-27T12:07:16;98372.41;;;5.64;100.00
18850;BME280;4989;48.772;9.154;2023-01-27T12:12:25;98364.34;;;5.71;90.39
18850;BME280;4989;48.772;9.154;2023-01-27T12:17:44;98364.00;;;5.83;93.42
18850;BME280;4989;48.772;9.154;2023-01-27T12:22:52;98367.66;;;5.36;96.90
18850;BME280;4989;48.772;9.154;2023-01-27T12:28:02;98356.25;;;5.71;100.00
18850;BME280;4989;48.772;9.154;2023-01-27T12:33:21;98353.22;;;5.87;95.20
18850;BME280;4989;48.772;9.154;2023-01-27T12:38:28;98353.34;;;6.08;98.44
18850;BME280;4989;48.772;9.154;2023-01-27T12:49:04;98353.63;;;5.78;90.80
18850;BME280;4989;48.772;9.154;2023-01-27T12:59:26;98354.47;;;6.00;99.74
18850;BME280;4989;48.772;9.154;2023-01-27T13:04:29;98357.53;;;5.95;88.15
18850;BME280;4989;48.772;9.154;2023-01-27T13:09:53;98356.31;;;5.85;92.50
18850;BME280;4989;48.772;9.154;2023-01-27T13:15:13;98350.91;;;5.82;93.72
18850;BME280;4989;48.772;9.154;2023-01-27T13:20:40;98359.38;;;5.80;89.56
18850;BME280;4989;48.772;9.154;2023-01-27T13:25:55;98351.69;;;5.82;93.70
18850;BME280;4989;48.772;9.154;2023-01-27T13:31:09;98348.63;;;5.87;90.63
18850;BME280;4989;48.772;9.154;2023-01-27T13:36:41;98360.13;;;5.77;94.35
18850;BME280;4989;48.772;9.154;2023-01-27T13:47:22;98376.31;;;5.77;95.37
18850;BME280;4989;48.772;9.154;2023-01-27T13:52:26;98370.16;;;5.80;94.64
18850;BME280;4989;48.772;9.154;2023-01-27T13:57:37;98385.59;;;5.83;97.58
18850;BME280;4989;48.772;9.154;2023-01-27T14:08:29;98386.41;;;5.87;98.91
18850;BME280;4989;48.772;9.154;2023-01-27T14:29:53;98406.38;;;5.72;97.50
18850;BME280;4989;48.772;9.154;2023-01-27T14:40:47;98409.44;;;5.74;96.07
18850;BME280;4989;48.772;9.154;2023-01-27T14:51:44;98413.28;;;5.73;95.53
18850;BME280;4989;48.772;9.154;2023-01-27T14:57:24;98412.50;;;5.69;98.27
18850;BME280;4989;48.772;9.154;2023-01-27T15:02:41;98407.88;;;5.66;97.04
18850;BME280;4989;48.772;9.154;2023-01-27T15:13:25;98397.91;;;5.77;97.40
18850;BME280;4989;48.772;9.154;2023-01-27T15:29:30;98403.63;;;5.65;93.00
18850;BME280;4989;48.772;9.154;2023-01-27T15:34:32;98407.91;;;5.73;95.60
18850;BME280;4989;48.772;9.154;2023-01-27T15:45:28;98407.16;;;5.80;97.17
18850;BME280;4989;48.772;9.154;2023-01-27T15:50:34;98411.03;;;5.89;100.00
18850;BME280;4989;48.772;9.154;2023-01-27T15:55:38;98415.25;;;5.80;97.28
18850;BME280;4989;48.772;9.154;2023-01-27T16:00:51;98438.47;;;5.33;94.50
18850;BME280;4989;48.772;9.154;2023-01-27T16:06:00;98451.59;;;5.38;97.58
18850;BME280;4989;48.772;9.154;2023-01-27T16:16:35;98466.44;;;5.69;96.24
18850;BME280;4989;48.772;9.154;2023-01-27T16:21:44;98472.63;;;5.73;100.00
18850;BME280;4989;48.772;9.154;2023-01-27T16:27:06;98477.16;;;5.58;96.82
18850;BME280;4989;48.772;9.154;2023-01-27T16:32:17;98477.22;;;5.69;100.00
18850;BME280;4989;48.772;9.154;2023-01-27T16:37:35;98474.22;;;5.85;94.31
18850;BME280;4989;48.772;9.154;2023-01-27T16:42:59;98485.78;;;5.85;100.00
18850;BME280;4989;48.772;9.154;2023-01-27T16:48:05;98482.31;;;5.85;94.71
18850;BME280;4989;48.772;9.154;2023-01-27T16:53:17;98486.56;;;5.89;95.31
18850;BME280;4989;48.772;9.154;2023-01-27T16:58:22;98482.03;;;6.01;94.25
18850;BME280;4989;48.772;9.154;2023-01-27T17:03:38;98486.09;;;5.73;92.73
18850;BME280;4989;48.772;9.154;2023-01-27T17:08:48;98498.69;;;5.55;94.88
18850;BME280;4989;48.772;9.154;2023-01-27T17:14:03;98492.22;;;5.66;100.00
18850;BME280;4989;48.772;9.154;2023-01-27T17:19:32;98494.19;;;5.73;93.49
18850;BME280;4989;48.772;9.154;2023-01-27T17:24:39;98490.31;;;5.67;95.12
18850;BME280;4989;48.772;9.154;2023-01-27T17:29:45;98489.56;;;5.70;96.82
18850;BME280;4989;48.772;9.154;2023-01-27T17:34:52;98492.69;;;5.79;100.00
18850;BME280;4989;48.772;9.154;2023-01-27T17:40:00;98503.00;;;5.66;92.23
18850;BME280;4989;48.772;9.154;2023-01-27T17:45:29;98508.88;;;5.79;100.00
18850;BME280;4989;48.772;9.154;2023-01-27T17:50:36;98500.34;;;5.70;96.78
18850;BME280;4989;48.772;9.154;2023-01-27T17:55:40;98505.00;;;5.80;100.00
18850;BME280;4989;48.772;9.154;2023-01-27T18:00:44;98507.06;;;5.97;100.00
18850;BME280;4989;48.772;9.154;2023-01-27T18:05:49;98512.69;;;5.74;98.70
18850;BME280;4989;48.772;9.154;2023-01-27T18:11:11;98518.16;;;5.85;96.15
18850;BME280;4989;48.772;9.154;2023-01-27T18:16:22;98519.72;;;5.90;100.00
18850;BME280;4989;48.772;9.154;2023-01-27T18:21:26;98515.16;;;5.97;96.29
18850;BME280;4989;48.772;9.154;2023-01-27T18:26:39;98516.78;;;6.09;97.36
18850;BME280;4989;48.772;9.154;2023-01-27T18:37:30;98517.41;;;5.88;93.43
18850;BME280;4989;48.772;9.154;2023-01-27T18:42:32;98519.78;;;5.97;92.11
18850;BME280;4989;48.772;9.154;2023-01-27T18:47:35;98518.91;;;5.82;93.97
18850;BME280;4989;48.772;9.154;2023-01-27T18:52:38;98525.19;;;6.01;100.00
18850;BME280;4989;48.772;9.154;2023-01-27T18:57:41;98535.22;;;5.96;97.60
18850;BME280;4989;48.772;9.154;2023-01-27T19:02:46;98529.25;;;5.73;94.46
18850;BME280;4989;48.772;9.154;2023-01-27T19:07:49;98524.44;;;6.04;100.00
18850;BME280;4989;48.772;9.154;2023-01-27T19:12:56;98523.25;;;5.94;94.10
18850;BME280;4989;48.772;9.154;2023-01-27T19:23:27;98526.88;;;5.68;95.58
18850;BME280;4989;48.772;9.154;2023-01-27T19:28:32;98527.72;;;5.76;100.00
18850;BME280;4989;48.772;9.154;2023-01-27T19:33:36;98540.91;;;5.88;100.00
18850;BME280;4989;48.772;9.154;2023-01-27T19:38:39;98539.09;;;6.03;96.34
18850;BME280;4989;48.772;9.154;2023-01-27T19:43:42;98537.59;;;6.12;100.00
18850;BME280;4989;48.772;9.154;2023-01-27T19:48:48;98530.63;;;6.08;95.34
18850;BME280;4989;48.772;9.154;2023-01-27T19:53:51;98532.19;;;6.05;96.01
18850;BME280;4989;48.772;9.154;2023-01-27T19:58:53;98541.78;;;6.03;95.44
18850;BME280;4989;48.772;9.154;2023-01-27T20:03:56;98551.03;;;6.02;96.20
18850;BME280;4989;48.772;9.154;2023-01-27T20:08:59;98549.13;;;6.06;93.53
18850;BME280;4989;48.772;9.154;2023-01-27T20:14:16;98552.81;;;5.83;91.59
18850;BME280;4989;48.772;9.154;2023-01-27T20:19:20;98557.47;;;5.90;98.78
18850;BME280;4989;48.772;9.154;2023-01-27T20:24:22;98559.50;;;5.96;100.00
18850;BME280;4989;48.772;9.154;2023-01-27T20:29:25;98562.19;;;5.96;93.91
18850;BME280;4989;48.772;9.154;2023-01-27T20:34:27;98568.38;;;6.01;100.00
18850;BME280;4989;48.772;9.154;2023-01-27T20:39:30;98565.31;;;6.06;99.30
18850;BME280;4989;48.772;9.154;2023-01-27T20:44:32;98573.28;;;5.91;97.80
18850;BME280;4989;48.772;9.154;2023-01-27T20:49:35;98575.28;;;5.94;97.55
18850;BME280;4989;48.772;9.154;2023-01-27T20:54:37;98562.94;;;5.93;97.48
18850;BME280;4989;48.772;9.154;2023-01-27T20:59:40;98572.88;;;5.86;94.60
18850;BME280;4989;48.772;9.154;2023-01-27T21:04:43;98579.84;;;5.90;97.14
18850;BME280;4989;48.772;9.154;2023-01-27T21:09:45;98580.59;;;5.87;94.87
18850;BME280;4989;48.772;9.154;2023-01-27T21:14:48;98580.53;;;5.80;96.95
18850;BME280;4989;48.772;9.154;2023-01-27T21:19:50;98590.56;;;5.83;94.99
18850;BME280;4989;48.772;9.154;2023-01-27T21:24:53;98587.06;;;5.79;100.00
18850;BME280;4989;48.772;9.154;2023-01-27T21:29:55;98584.75;;;5.78;97.85
18850;BME280;4989;48.772;9.154;2023-01-27T21:34:58;98582.19;;;5.95;100.00
18850;BME280;4989;48.772;9.154;2023-01-27T21:40:02;98583.03;;;6.00;95.71
18850;BME280;4989;48.772;9.154;2023-01-27T21:45:04;98586.00;;;5.91;99.25
18850;BME280;4989;48.772;9.154;2023-01-27T21:50:14;98571.50;;;6.10;100.00
18850;BME280;4989;48.772;9.154;2023-01-27T21:55:25;98582.28;;;6.06;93.95
18850;BME280;4989;48.772;9.154;2023-01-27T22:00:28;98572.97;;;5.96;92.44
18850;BME280;4989;48.772;9.154;2023-01-27T22:05:32;98572.88;;;5.86;94.10
18850;BME280;4989;48.772;9.154;2023-01-27T22:10:36;98573.28;;;5.88;98.96
18850;BME280;4989;48.772;9.154;2023-01-27T22:15:39;98564.34;;;5.80;95.67
18850;BME280;4989;48.772;9.154;2023-01-27T22:20:42;98565.63;;;5.93;100.00
18850;BME280;4989;48.772;9.154;2023-01-27T22:25:48;98571.41;;;5.95;98.28
18850;BME280;4989;48.772;9.154;2023-01-27T22:30:51;98573.63;;;5.86;96.29
18850;BME280;4989;48.772;9.154;2023-01-27T22:36:04;98575.97;;;5.88;93.59
18850;BME280;4989;48.772;9.154;2023-01-27T22:41:06;98586.78;;;5.91;100.00
18850;BME280;4989;48.772;9.154;2023-01-27T22:46:09;98583.31;;;5.91;98.03
18850;BME280;4989;48.772;9.154;2023-01-27T22:51:11;98575.88;;;5.77;96.08
18850;BME280;4989;48.772;9.154;2023-01-27T22:56:14;98579.00;;;5.83;97.12
18850;BME280;4989;48.772;9.154;2023-01-27T23:01:16;98584.03;;;5.84;98.47
18850;BME280;4989;48.772;9.154;2023-01-27T23:06:19;98580.53;;;5.84;97.91
18850;BME280;4989;48.772;9.154;2023-01-27T23:11:21;98582.16;;;5.92;95.55
18850;BME280;4989;48.772;9.154;2023-01-27T23:16:24;98584.69;;;5.67;90.57
18850;BME280;4989;48.772;9.154;2023-01-27T23:21:27;98580.66;;;5.94;100.00
18850;BME280;4989;48.772;9.154;2023-01-27T23:26:30;98578.25;;;5.82;93.43
18850;BME280;4989;48.772;9.154;2023-01-27T23:31:33;98570.59;;;5.91;99.97
18850;BME280;4989;48.772;9.154;2023-01-27T23:36:35;98562.19;;;5.96;95.39
18850;BME280;4989;48.772;9.154;2023-01-27T23:41:38;98573.28;;;5.91;95.65
18850;BME280;4989;48.772;9.154;2023-01-27T23:46:40;98584.09;;;5.91;97.94
18850;BME280;4989;48.772;9.154;2023-01-27T23:51:44;98579.00;;;5.83;93.65
18850;BME280;4989;48.772;9.154;2023-01-27T23:56:47;98586.28;;;5.75;93.96
